nws-alerts: Checking more than four warning/county codes can delay the loading of your pages. You should use a cron job to get the data.

Nearby METAR Reports

 

KOXC - Oxford/Waterbury, Connecticut, USA
Distance from station: NW 7mi, 11km
Updated: 02/22/2019 2:51am
Clear
Clear
 Wind from W
Wind: W 6 mph , 9 km/h
Temperature: 36°F , 2°C
Wind Chill: 31°F , -1°C
Dew Point: 23°F , -5°C
Humidity: 60%
Barometer: 30.16 inHg , 1021.3 hPa
Clouds: Clear
Visibility: 10 miles , 16 km
2019/02/22 07:51 KOXC 220751Z AUTO 28005KT 10SM CLR 02/M05 A3016 RMK AO2 SLP232 T00171050 FZRANO
KHVN - New Haven/Tweed, Connecticut, USA
Distance from station: SE 13mi, 20km
Updated: 02/22/2019 3:32am
unable to load KHVN data RC=
unable to load KHVN data RC=
 
 
KMMK - Meriden, Connecticut, USA
Distance from station: NE 13mi, 21km
Updated: 02/22/2019 3:32am
unable to load KMMK data RC=
unable to load KMMK data RC=
 
KBDR - Bridgeport, Connecticut, USA
Distance from station: SSW 17mi, 27km
Updated: 02/22/2019 3:32am
unable to load KBDR data RC=
unable to load KBDR data RC=
 
 
KDXR - Danbury, Connecticut, USA
Distance from station: W 23mi, 38km
Updated: 02/22/2019 2:53am
Clear
Clear
 Wind from S
Wind: S 3 mph , 6 km/h
Temperature: 34°F , 1°C
Dew Point: 25°F , -4°C
Humidity: 70%
Barometer: 30.19 inHg , 1022.4 hPa
Clouds: Clear
Visibility: 10 miles , 16 km
2019/02/22 07:53 KDXR 220753Z AUTO 19003KT 10SM CLR 01/M04 A3019 RMK AO2 SLP225 T00061039